Time;durP1;ratioP1;P1;durP2;ratioP2;P2;SDS_P1;SDS_P2;PMS_P1;PMS_P2;Temp;Humidity;BMP_temperature;BMP_pressure;BME280_temperature;BME280_humidity;BME280_pressure;Samples;Min_cycle;Max_cycle;Signal;HPM_P1;HPM_P2
2022/09/08 00:01:14;;;;;;;;;;;;;;;19.09;100.00;100851.97;5022848;28;20299;-43
2022/09/08 00:03:39;;;;;;;;;;;;;;;19.10;100.00;100850.13;5024285;28;19917;-42
2022/09/08 00:06:07;;;;;;;;;;;;;;;19.10;100.00;100853.66;5035035;28;19912;-43
2022/09/08 00:08:32;;;;;;;;;;;;;;;19.14;100.00;100849.44;5036770;28;20479;-42
2022/09/08 00:10:58;;;;;;;;;;;;;;;19.09;100.00;100846.56;5034872;28;19924;-42
2022/09/08 00:13:25;;;;;;;;;;;;;;;19.09;100.00;100854.69;5037200;28;19909;-44
2022/09/08 00:15:50;;;;;;;;;;;;;;;19.09;100.00;100856.56;5036212;28;20214;-42
2022/09/08 00:18:16;;;;;;;;;;;;;;;19.08;100.00;100853.03;5035257;28;19920;-45
2022/09/08 00:20:41;;;;;;;;;;;;;;;18.98;100.00;100856.22;5035153;28;19939;-45
2022/09/08 00:23:06;;;;;;;;;;;;;;;18.91;100.00;100850.00;5036347;28;19928;-47
2022/09/08 00:25:31;;;;;;;;;;;;;;;18.80;100.00;100856.06;5034086;28;19932;-42
2022/09/08 00:27:57;;;;;;;;;;;;;;;18.69;100.00;100854.06;5035865;28;19915;-42
2022/09/08 00:30:22;;;;;;;;;;;;;;;18.59;100.00;100851.78;5035315;28;19955;-44
2022/09/08 00:32:47;;;;;;;;;;;;;;;18.49;100.00;100848.72;5035028;28;19917;-45
2022/09/08 00:35:14;;;;;;;;;;;;;;;18.36;100.00;100855.78;5035639;28;20012;-45
2022/09/08 00:37:42;;;;;;;;;;;;;;;18.23;100.00;100850.44;5021170;28;19915;-45
2022/09/08 00:40:08;;;;;;;;;;;;;;;18.11;100.00;100836.75;5034387;28;20385;-43
2022/09/08 00:42:33;;;;;;;;;;;;;;;18.08;100.00;100835.28;5029717;28;19970;-44
2022/09/08 00:44:58;;;;;;;;;;;;;;;18.13;100.00;100836.53;5035389;28;20317;-42
2022/09/08 00:47:26;;;;;;;;;;;;;;;18.15;100.00;100832.56;5032774;28;20011;-45
2022/09/08 00:50:15;;;;;;;;;;;;;;;18.22;100.00;100840.66;5032236;28;20125;-44
2022/09/08 00:52:52;;;;;;;;;;;;;;;18.30;100.00;100845.03;5024332;28;19908;-45
2022/09/08 00:55:19;;;;;;;;;;;;;;;18.33;100.00;100831.06;5023699;28;20387;-45
2022/09/08 00:57:44;;;;;;;;;;;;;;;18.35;100.00;100818.19;5022874;28;19966;-41
2022/09/08 01:00:12;;;;;;;;;;;;;;;18.31;100.00;100814.22;5034529;28;19920;-44
2022/09/08 01:02:37;;;;;;;;;;;;;;;18.24;100.00;100809.69;5035508;28;20488;-45
2022/09/08 01:05:07;;;;;;;;;;;;;;;18.19;100.00;100811.34;5035390;28;20284;-45
2022/09/08 01:13:20;;;;;;;;;;;;;;;18.25;100.00;100808.63;5031046;28;20480;-44
2022/09/08 01:15:45;;;;;;;;;;;;;;;18.24;100.00;100815.09;5022638;28;19909;-43
2022/09/08 01:18:12;;;;;;;;;;;;;;;18.19;100.00;100806.75;5030156;28;20061;-44
2022/09/08 01:20:44;;;;;;;;;;;;;;;18.17;100.00;100792.63;5034698;28;20403;-45
2022/09/08 01:23:33;;;;;;;;;;;;;;;18.21;100.00;100804.72;5030115;28;19983;-42
2022/09/08 01:26:13;;;;;;;;;;;;;;;18.24;100.00;100795.31;5021816;28;20340;-42
2022/09/08 01:28:40;;;;;;;;;;;;;;;18.23;100.00;100793.69;5031565;28;19924;-42
2022/09/08 01:31:06;;;;;;;;;;;;;;;18.19;100.00;100789.72;5033584;28;20167;-45
2022/09/08 01:33:32;;;;;;;;;;;;;;;18.21;100.00;100803.84;5066354;28;20141;-44
2022/09/08 01:35:57;;;;;;;;;;;;;;;18.22;100.00;100805.53;5032662;28;20003;-42
2022/09/08 01:38:23;;;;;;;;;;;;;;;18.23;100.00;100785.56;5029640;28;19951;-43
2022/09/08 01:40:48;;;;;;;;;;;;;;;18.24;100.00;100766.44;5032892;28;19917;-42
2022/09/08 01:43:13;;;;;;;;;;;;;;;18.24;100.00;100761.03;5035565;28;20224;-44
2022/09/08 01:45:39;;;;;;;;;;;;;;;18.24;100.00;100758.31;5034402;28;20268;-44
2022/09/08 01:48:05;;;;;;;;;;;;;;;18.26;100.00;100753.53;5052581;28;19912;-45
2022/09/08 01:50:30;;;;;;;;;;;;;;;18.24;100.00;100754.78;5033744;28;19909;-46
2022/09/08 01:52:55;;;;;;;;;;;;;;;18.16;100.00;100747.75;5034390;28;20205;-42
2022/09/08 01:55:21;;;;;;;;;;;;;;;18.16;100.00;100758.56;5034348;28;19908;-44
2022/09/08 01:57:46;;;;;;;;;;;;;;;18.15;100.00;100777.69;5033390;28;19913;-43
2022/09/08 02:00:12;;;;;;;;;;;;;;;18.04;100.00;100779.16;5018437;28;20275;-45
2022/09/08 02:02:37;;;;;;;;;;;;;;;17.95;100.00;100769.63;5025133;28;20165;-43
2022/09/08 02:05:02;;;;;;;;;;;;;;;17.92;100.00;100748.44;5032146;28;20332;-46
2022/09/08 02:07:27;;;;;;;;;;;;;;;17.92;100.00;100741.16;5020298;28;20261;-47
2022/09/08 02:09:53;;;;;;;;;;;;;;;17.87;100.00;100754.47;5029265;28;20129;-44
2022/09/08 02:12:19;;;;;;;;;;;;;;;17.78;100.00;100750.31;5035880;28;20027;-40
2022/09/08 02:14:44;;;;;;;;;;;;;;;17.75;100.00;100745.34;5038019;28;20000;-44
2022/09/08 02:17:09;;;;;;;;;;;;;;;17.78;100.00;100744.91;5035856;28;20210;-46
2022/09/08 02:19:34;;;;;;;;;;;;;;;17.73;100.00;100739.31;5029556;28;20331;-43
2022/09/08 02:21:59;;;;;;;;;;;;;;;17.64;100.00;100733.31;5037099;28;19921;-42
2022/09/08 02:24:25;;;;;;;;;;;;;;;17.57;100.00;100716.31;5037736;28;20382;-45
2022/09/08 02:26:50;;;;;;;;;;;;;;;17.51;100.00;100718.81;5037193;28;19912;-44
2022/09/08 02:29:15;;;;;;;;;;;;;;;17.52;100.00;100712.34;5026341;28;20390;-43
2022/09/08 02:31:40;;;;;;;;;;;;;;;17.60;100.00;100705.06;5034063;28;20000;-45
2022/09/08 02:34:06;;;;;;;;;;;;;;;17.68;100.00;100700.28;5032162;28;20267;-43
2022/09/08 02:36:31;;;;;;;;;;;;;;;17.75;100.00;100694.81;5030930;28;19924;-43
2022/09/08 02:38:56;;;;;;;;;;;;;;;17.81;100.00;100695.88;5034301;28;19960;-41
2022/09/08 02:41:22;;;;;;;;;;;;;;;17.83;100.00;100708.09;5036670;28;19915;-45
2022/09/08 02:43:47;;;;;;;;;;;;;;;17.82;100.00;100705.63;5037987;28;19912;-42
2022/09/08 02:46:13;;;;;;;;;;;;;;;17.81;100.00;100712.91;5037025;28;19974;-42
2022/09/08 02:48:39;;;;;;;;;;;;;;;17.81;100.00;100709.38;5035168;28;20579;-44
2022/09/08 02:51:05;;;;;;;;;;;;;;;17.76;100.00;100707.31;5029710;28;19973;-44
2022/09/08 02:53:31;;;;;;;;;;;;;;;17.69;100.00;100709.19;5033795;28;19913;-47
2022/09/08 02:55:57;;;;;;;;;;;;;;;17.69;100.00;100715.44;5036817;28;19916;-46
2022/09/08 02:58:22;;;;;;;;;;;;;;;17.57;100.00;100719.81;5033620;28;20021;-45
2022/09/08 03:00:48;;;;;;;;;;;;;;;17.55;100.00;100713.81;5027345;28;20133;-44
2022/09/08 03:03:14;;;;;;;;;;;;;;;17.62;100.00;100706.50;5020031;28;20054;-42
2022/09/08 03:05:39;;;;;;;;;;;;;;;17.66;100.00;100720.41;5021061;28;19916;-44
2022/09/08 03:08:04;;;;;;;;;;;;;;;17.61;100.00;100720.22;5031420;28;20016;-42
2022/09/08 03:10:30;;;;;;;;;;;;;;;17.47;100.00;100717.53;5020560;28;19928;-45
2022/09/08 03:12:57;;;;;;;;;;;;;;;17.38;100.00;100718.81;5024525;28;19985;-43
2022/09/08 03:15:23;;;;;;;;;;;;;;;17.36;100.00;100718.16;5061227;28;19960;-41
2022/09/08 03:17:49;;;;;;;;;;;;;;;17.40;100.00;100729.41;5030998;28;20392;-42
2022/09/08 03:20:14;;;;;;;;;;;;;;;17.29;100.00;100722.75;5027542;28;19913;-44
2022/09/08 03:22:40;;;;;;;;;;;;;;;17.25;100.00;100719.63;5033626;28;19935;-42
2022/09/08 03:25:06;;;;;;;;;;;;;;;17.28;100.00;100719.22;5026885;28;19987;-44
2022/09/08 03:27:31;;;;;;;;;;;;;;;17.30;100.00;100711.75;5033404;28;20279;-45
2022/09/08 03:29:56;;;;;;;;;;;;;;;17.34;100.00;100706.75;5034531;28;20289;-45
2022/09/08 03:32:22;;;;;;;;;;;;;;;17.35;100.00;100711.13;5030621;28;20383;-42
2022/09/08 03:34:47;;;;;;;;;;;;;;;17.25;100.00;100710.72;5031775;28;19909;-42
2022/09/08 03:37:13;;;;;;;;;;;;;;;17.20;100.00;100713.22;5029010;28;20342;-42
2022/09/08 03:39:38;;;;;;;;;;;;;;;17.17;100.00;100716.31;5036593;28;20440;-41
2022/09/08 03:42:03;;;;;;;;;;;;;;;17.09;100.00;100717.34;5028293;28;19916;-46
2022/09/08 03:44:28;;;;;;;;;;;;;;;17.01;100.00;100713.00;5025941;28;19944;-46
2022/09/08 03:46:54;;;;;;;;;;;;;;;16.98;100.00;100715.28;5035518;28;19977;-41
2022/09/08 03:49:19;;;;;;;;;;;;;;;16.96;100.00;100718.19;5036878;28;19913;-43
2022/09/08 03:51:44;;;;;;;;;;;;;;;16.91;100.00;100723.38;5026882;28;19940;-44
2022/09/08 03:56:53;;;;;;;;;;;;;;;16.71;100.00;100753.78;5035247;28;20410;-43
2022/09/08 03:59:19;;;;;;;;;;;;;;;16.56;100.00;100762.06;5036849;28;19908;-41
2022/09/08 04:01:44;;;;;;;;;;;;;;;16.43;100.00;100764.72;5026939;28;19908;-46
2022/09/08 04:04:09;;;;;;;;;;;;;;;16.32;100.00;100736.47;5028796;28;19924;-41
2022/09/08 04:06:35;;;;;;;;;;;;;;;16.32;100.00;100716.78;5028534;28;19966;-44
2022/09/08 04:09:00;;;;;;;;;;;;;;;16.34;100.00;100709.31;5030274;28;20345;-42
2022/09/08 04:11:25;;;;;;;;;;;;;;;16.37;100.00;100715.13;5025793;28;19928;-44
2022/09/08 04:13:51;;;;;;;;;;;;;;;16.37;100.00;100719.69;5036085;28;19917;-48
2022/09/08 04:16:16;;;;;;;;;;;;;;;16.39;100.00;100714.94;5030915;28;20423;-41
2022/09/08 04:18:42;;;;;;;;;;;;;;;16.41;100.00;100710.16;5032426;28;19954;-46
2022/09/08 04:21:08;;;;;;;;;;;;;;;16.42;100.00;100709.13;5029885;28;19917;-43
2022/09/08 04:23:34;;;;;;;;;;;;;;;16.42;100.00;100701.88;5029861;28;19916;-41
2022/09/08 04:26:00;;;;;;;;;;;;;;;16.44;100.00;100709.75;5034624;28;19916;-45
2022/09/08 04:28:26;;;;;;;;;;;;;;;16.44;100.00;100711.63;5033198;28;20004;-47
2022/09/08 04:30:51;;;;;;;;;;;;;;;16.36;100.00;100710.78;5034101;28;19999;-44
2022/09/08 04:33:17;;;;;;;;;;;;;;;16.36;100.00;100721.56;5033501;28;20360;-43
2022/09/08 04:35:42;;;;;;;;;;;;;;;16.40;100.00;100727.38;5030674;28;20039;-44
2022/09/08 04:38:07;;;;;;;;;;;;;;;16.37;100.00;100728.59;5049540;28;19924;-46
2022/09/08 04:40:33;;;;;;;;;;;;;;;16.35;100.00;100727.16;5033062;28;19940;-43
2022/09/08 04:42:58;;;;;;;;;;;;;;;16.36;100.00;100728.81;5035142;28;19919;-42
2022/09/08 04:45:23;;;;;;;;;;;;;;;16.33;100.00;100727.34;5034206;28;19936;-46
2022/09/08 04:47:48;;;;;;;;;;;;;;;16.25;100.00;100727.53;5031847;28;19913;-44
2022/09/08 04:50:14;;;;;;;;;;;;;;;16.22;100.00;100734.16;5022529;28;20394;-43
2022/09/08 04:52:39;;;;;;;;;;;;;;;16.21;100.00;100739.75;5031137;28;20094;-45
2022/09/08 04:55:04;;;;;;;;;;;;;;;16.23;100.00;100729.59;5026963;28;20032;-45
2022/09/08 04:57:30;;;;;;;;;;;;;;;16.26;100.00;100736.44;5026711;28;19982;-43
2022/09/08 04:59:55;;;;;;;;;;;;;;;16.21;100.00;100737.06;5022892;28;20283;-44
2022/09/08 05:02:20;;;;;;;;;;;;;;;16.16;100.00;100734.97;5025796;28;20634;-46
2022/09/08 05:04:45;;;;;;;;;;;;;;;16.13;100.00;100738.06;5031192;28;20012;-44
2022/09/08 05:07:10;;;;;;;;;;;;;;;16.14;100.00;100733.47;5024380;28;20422;-44
2022/09/08 05:09:36;;;;;;;;;;;;;;;16.16;100.00;100734.13;5024298;28;20441;-45
2022/09/08 05:12:01;;;;;;;;;;;;;;;16.15;100.00;100735.97;5023501;28;20014;-44
2022/09/08 05:14:26;;;;;;;;;;;;;;;16.18;100.00;100740.97;5022231;28;20023;-44
2022/09/08 05:16:51;;;;;;;;;;;;;;;16.17;100.00;100735.78;5017972;28;20422;-43
2022/09/08 05:19:16;;;;;;;;;;;;;;;16.14;100.00;100745.13;5027332;28;19908;-43
2022/09/08 05:21:42;;;;;;;;;;;;;;;16.14;100.00;100744.25;5022599;28;19934;-43
2022/09/08 05:24:07;;;;;;;;;;;;;;;16.12;100.00;100740.94;5025722;28;19916;-45
2022/09/08 05:26:33;;;;;;;;;;;;;;;16.13;100.00;100742.63;5027128;28;19924;-45
2022/09/08 05:28:58;;;;;;;;;;;;;;;16.15;100.00;100743.25;5024608;28;20061;-42
2022/09/08 05:31:24;;;;;;;;;;;;;;;16.14;100.00;100744.25;5024135;28;19921;-45
2022/09/08 05:33:50;;;;;;;;;;;;;;;16.13;100.00;100743.44;5029704;28;19909;-47
2022/09/08 05:36:17;;;;;;;;;;;;;;;16.12;100.00;100747.16;5035126;28;19913;-43
2022/09/08 05:38:44;;;;;;;;;;;;;;;16.13;100.00;100743.44;5034568;28;19988;-44
2022/09/08 05:41:10;;;;;;;;;;;;;;;16.12;100.00;100743.63;5027946;28;20306;-43
2022/09/08 05:43:35;;;;;;;;;;;;;;;16.10;100.00;100741.13;5024558;28;19928;-44
2022/09/08 05:46:00;;;;;;;;;;;;;;;16.13;100.00;100748.81;5033533;28;19966;-44
2022/09/08 05:48:26;;;;;;;;;;;;;;;16.13;100.00;100748.81;5033898;28;20026;-45
2022/09/08 05:50:51;;;;;;;;;;;;;;;16.09;100.00;100741.34;5028828;28;19913;-43
2022/09/08 05:53:16;;;;;;;;;;;;;;;16.01;100.00;100743.16;5031395;28;19967;-43
2022/09/08 05:55:41;;;;;;;;;;;;;;;15.97;100.00;100739.22;5028747;28;19912;-45
2022/09/08 05:58:07;;;;;;;;;;;;;;;15.97;100.00;100743.75;5032970;28;19917;-45
2022/09/08 06:00:32;;;;;;;;;;;;;;;15.96;100.00;100742.94;5029875;28;19913;-42
2022/09/08 06:02:58;;;;;;;;;;;;;;;15.98;100.00;100745.44;5028033;28;20023;-43
2022/09/08 06:05:23;;;;;;;;;;;;;;;15.97;100.00;100749.16;5033122;28;20275;-45
2022/09/08 06:07:49;;;;;;;;;;;;;;;15.97;100.00;100754.53;5032705;28;20196;-43
2022/09/08 06:10:15;;;;;;;;;;;;;;;15.93;100.00;100754.09;5018029;28;19920;-42
2022/09/08 06:12:41;;;;;;;;;;;;;;;15.91;100.00;100748.09;5034014;28;20018;-43
2022/09/08 06:15:07;;;;;;;;;;;;;;;15.94;100.00;100742.31;5031052;28;20465;-46
2022/09/08 06:17:32;;;;;;;;;;;;;;;16.03;100.00;100726.81;5033305;28;19916;-43
2022/09/08 06:19:57;;;;;;;;;;;;;;;16.11;100.00;100733.91;5033501;28;20100;-43
2022/09/08 06:22:23;;;;;;;;;;;;;;;16.18;100.00;100737.47;5033651;28;19913;-42
2022/09/08 06:24:48;;;;;;;;;;;;;;;16.16;100.00;100740.34;5033456;28;19916;-43
2022/09/08 06:27:27;;;;;;;;;;;;;;;16.15;100.00;100737.84;5033301;28;20590;-42
2022/09/08 06:30:12;;;;;;;;;;;;;;;16.18;100.00;100740.97;5033065;28;19909;-43
2022/09/08 06:32:37;;;;;;;;;;;;;;;16.17;100.00;100735.78;5033032;28;20641;-44
2022/09/08 06:35:12;;;;;;;;;;;;;;;16.17;100.00;100743.88;5033722;28;19916;-45
2022/09/08 06:37:47;;;;;;;;;;;;;;;16.17;100.00;100750.09;5033461;28;20001;-44
2022/09/08 06:40:19;;;;;;;;;;;;;;;16.19;100.00;100752.56;5032827;28;19987;-44
2022/09/08 06:42:49;;;;;;;;;;;;;;;16.19;100.00;100748.03;5033803;28;20015;-42
2022/09/08 06:45:20;;;;;;;;;;;;;;;16.19;100.00;100752.56;5033788;28;20423;-44
2022/09/08 06:47:49;;;;;;;;;;;;;;;16.24;100.00;100755.50;5033011;28;20327;-44
2022/09/08 06:50:15;;;;;;;;;;;;;;;16.26;100.00;100753.47;5026597;28;20212;-43
2022/09/08 06:52:45;;;;;;;;;;;;;;;16.24;100.00;100760.88;5028353;28;19936;-41
2022/09/08 06:55:29;;;;;;;;;;;;;;;16.23;100.00;100765.44;5032193;28;20200;-44
2022/09/08 06:58:06;;;;;;;;;;;;;;;16.27;100.00;100765.06;5034462;28;19909;-46
2022/09/08 07:00:50;;;;;;;;;;;;;;;16.29;100.00;100763.81;5036328;28;20393;-43
2022/09/08 07:03:33;;;;;;;;;;;;;;;16.34;100.00;100757.81;5035065;28;20174;-47
2022/09/08 07:06:02;;;;;;;;;;;;;;;16.39;100.00;100749.97;5037303;28;19913;-46
2022/09/08 07:08:38;;;;;;;;;;;;;;;16.43;100.00;100756.63;5035024;28;20155;-44
2022/09/08 07:11:20;;;;;;;;;;;;;;;16.50;100.00;100749.38;5024698;28;19920;-45
2022/09/08 07:13:48;;;;;;;;;;;;;;;16.58;100.00;100749.22;5036985;28;19936;-45
2022/09/08 07:16:19;;;;;;;;;;;;;;;16.58;100.00;100753.75;5035939;28;20011;-43
2022/09/08 07:18:51;;;;;;;;;;;;;;;16.69;100.00;100760.44;5036660;28;19908;-45
2022/09/08 07:21:20;;;;;;;;;;;;;;;16.77;100.00;100760.25;5037161;28;19962;-44
2022/09/08 07:23:45;;;;;;;;;;;;;;;16.78;100.00;100768.16;5027218;28;20407;-42
2022/09/08 07:26:25;;;;;;;;;;;;;;;16.81;100.00;100763.38;5035725;28;19908;-44
2022/09/08 07:28:52;;;;;;;;;;;;;;;16.86;100.00;100755.53;5036315;28;19919;-43
2022/09/08 07:31:22;;;;;;;;;;;;;;;16.87;100.00;100757.16;5036168;28;20331;-46
2022/09/08 07:33:51;;;;;;;;;;;;;;;16.82;100.00;100759.63;5036240;28;19982;-43
2022/09/08 07:36:19;;;;;;;;;;;;;;;16.81;100.00;100766.06;5036806;28;20003;-42
2022/09/08 07:38:47;;;;;;;;;;;;;;;16.85;100.00;100761.94;5035994;28;20236;-44
2022/09/08 07:41:16;;;;;;;;;;;;;;;16.92;100.00;100760.09;5035010;28;19908;-43
2022/09/08 07:43:42;;;;;;;;;;;;;;;16.91;100.00;100764.66;5036700;28;20410;-45
2022/09/08 07:46:26;;;;;;;;;;;;;;;16.92;100.00;100765.47;5034770;28;19963;-42
2022/09/08 07:49:09;;;;;;;;;;;;;;;16.93;100.00;100761.75;5036158;28;19966;-42
2022/09/08 07:51:41;;;;;;;;;;;;;;;16.95;100.00;100763.22;5035028;28;19960;-42
2022/09/08 07:54:20;;;;;;;;;;;;;;;17.07;100.00;100768.81;5034135;28;19999;-40
2022/09/08 07:57:05;;;;;;;;;;;;;;;17.18;100.00;100766.56;5035289;28;20280;-42
2022/09/08 08:00:00;;;;;;;;;;;;;;;17.30;100.00;100767.59;5034650;28;20023;-42
2022/09/08 08:02:31;;;;;;;;;;;;;;;17.37;100.00;100771.13;5026938;28;19915;-42
2022/09/08 08:05:15;;;;;;;;;;;;;;;17.46;100.00;100777.97;5035606;28;20307;-40
2022/09/08 08:07:48;;;;;;;;;;;;;;;17.57;100.00;100781.09;5036210;28;19909;-41
2022/09/08 08:10:18;;;;;;;;;;;;;;;17.61;100.00;100777.75;5019010;28;20011;-40
2022/09/08 08:12:47;;;;;;;;;;;;;;;17.57;100.00;100773.81;5035482;28;19928;-40
2022/09/08 08:15:18;;;;;;;;;;;;;;;17.62;100.00;100774.03;5034304;28;20291;-41
2022/09/08 08:18:02;;;;;;;;;;;;;;;17.66;100.00;100772.56;5035836;28;20003;-41
2022/09/08 08:20:30;;;;;;;;;;;;;;;17.63;100.00;100772.97;5033944;28;20428;-41
2022/09/08 08:23:09;;;;;;;;;;;;;;;17.65;100.00;100776.31;5035303;28;20307;-42
2022/09/08 08:25:42;;;;;;;;;;;;;;;17.86;100.00;100783.38;5034000;28;20276;-46
2022/09/08 08:28:16;;;;;;;;;;;;;;;17.84;100.00;100776.50;5035352;28;19916;-40
2022/09/08 08:30:55;;;;;;;;;;;;;;;17.85;100.00;100773.59;5035140;28;20036;-42
2022/09/08 08:33:27;;;;;;;;;;;;;;;18.04;100.00;100779.16;5035242;28;19969;-42
2022/09/08 08:35:53;;;;;;;;;;;;;;;18.26;100.00;100777.88;5035240;28;19913;-42
2022/09/08 08:38:23;;;;;;;;;;;;;;;18.24;100.00;100771.84;5035385;28;20361;-42
2022/09/08 08:40:57;;;;;;;;;;;;;;;18.19;100.00;100773.50;5034466;28;20271;-41
2022/09/08 08:43:25;;;;;;;;;;;;;;;18.19;100.00;100773.50;5033679;28;19920;-41
2022/09/08 08:46:08;;;;;;;;;;;;;;;18.26;100.00;100777.88;5032022;28;19909;-43
2022/09/08 08:48:39;;;;;;;;;;;;;;;18.35;100.00;100777.63;5034800;28;19912;-40
2022/09/08 08:51:16;;;;;;;;;;;;;;;18.47;100.00;100788.59;5034433;28;19908;-41
2022/09/08 08:54:00;;;;;;;;;;;;;;;18.50;100.00;100786.28;5034591;28;19939;-40
2022/09/08 08:56:38;;;;;;;;;;;;;;;18.42;100.00;100795.47;5033871;28;19928;-42
2022/09/08 08:59:04;;;;;;;;;;;;;;;18.69;100.00;100781.00;5035350;28;19912;-41
2022/09/08 09:01:29;;;;;;;;;;;;;;;18.85;100.00;100783.22;5033313;28;19915;-42
2022/09/08 09:03:58;;;;;;;;;;;;;;;19.12;100.00;100789.28;5035126;28;20399;-41
2022/09/08 09:06:26;;;;;;;;;;;;;;;19.38;100.00;100780.13;5033772;28;19919;-44
2022/09/08 09:09:01;;;;;;;;;;;;;;;19.25;100.00;100785.66;5029896;28;19909;-41
2022/09/08 09:11:41;;;;;;;;;;;;;;;19.08;100.00;100779.13;5025386;28;19920;-44
2022/09/08 09:14:13;;;;;;;;;;;;;;;19.07;100.00;100783.69;5034467;28;20749;-45
2022/09/08 09:16:57;;;;;;;;;;;;;;;19.12;100.00;100777.63;5034150;28;19913;-42
2022/09/08 09:19:25;;;;;;;;;;;;;;;19.14;100.00;100779.06;5033419;28;19909;-40
2022/09/08 09:21:53;;;;;;;;;;;;;;;19.21;100.00;100779.00;5034254;28;20015;-45
2022/09/08 09:24:41;;;;;;;;;;;;;;;19.25;100.00;100780.25;5024813;28;20093;-43
2022/09/08 09:27:12;;;;;;;;;;;;;;;19.21;100.00;100781.72;5022987;28;20550;-44
2022/09/08 09:29:38;;;;;;;;;;;;;;;19.29;100.00;100780.63;5034251;28;20378;-42
2022/09/08 09:32:15;;;;;;;;;;;;;;;19.38;100.00;100777.44;5032505;28;19916;-41
2022/09/08 09:34:50;;;;;;;;;;;;;;;19.49;100.00;100773.16;5032804;28;20093;-43
2022/09/08 09:37:27;;;;;;;;;;;;;;;19.71;100.00;100787.13;5034352;28;19908;-43
2022/09/08 09:39:56;;;;;;;;;;;;;;;19.65;100.00;100788.00;5032720;28;20452;-44
2022/09/08 09:42:30;;;;;;;;;;;;;;;19.72;100.00;100775.25;5033072;28;19939;-42
2022/09/08 09:44:58;;;;;;;;;;;;;;;19.92;100.00;100779.66;5034185;28;19916;-45
2022/09/08 09:47:39;;;;;;;;;;;;;;;20.00;100.00;100767.69;5032820;28;19952;-42
2022/09/08 09:50:04;;;;;;;;;;;;;;;20.24;98.79;100776.81;5033956;28;19920;-44
2022/09/08 09:52:29;;;;;;;;;;;;;;;20.43;96.53;100770.28;5034274;28;20226;-42
2022/09/08 09:55:09;;;;;;;;;;;;;;;20.72;95.94;100777.88;5032142;28;19951;-45
2022/09/08 09:57:47;;;;;;;;;;;;;;;20.93;93.88;100771.13;5033881;28;20000;-44
2022/09/08 10:00:19;;;;;;;;;;;;;;;20.79;89.19;100782.19;5034058;28;19909;-45
2022/09/08 10:02:47;;;;;;;;;;;;;;;20.70;93.69;100775.41;5027703;28;19924;-42
2022/09/08 10:05:24;;;;;;;;;;;;;;;20.95;94.21;100769.00;5034435;28;19909;-42
2022/09/08 10:08:08;;;;;;;;;;;;;;;21.31;89.46;100773.44;5033058;28;20486;-42
2022/09/08 10:10:42;;;;;;;;;;;;;;;21.37;91.48;100786.09;5018052;28;19927;-46
2022/09/08 10:13:16;;;;;;;;;;;;;;;21.47;89.88;100787.41;5033768;28;20135;-42
2022/09/08 10:15:55;;;;;;;;;;;;;;;21.36;90.78;100787.13;5033461;28;19909;-42
2022/09/08 10:18:23;;;;;;;;;;;;;;;21.48;92.32;100789.91;5033033;28;20308;-41
2022/09/08 10:20:58;;;;;;;;;;;;;;;21.70;91.47;100786.59;5033480;28;20061;-42
2022/09/08 10:23:36;;;;;;;;;;;;;;;21.81;91.60;100788.50;5030209;28;20287;-41
2022/09/08 10:26:25;;;;;;;;;;;;;;;21.63;89.13;100785.91;5018688;28;20120;-43
2022/09/08 10:29:06;;;;;;;;;;;;;;;21.39;87.61;100789.38;5033925;28;19908;-41
2022/09/08 10:31:49;;;;;;;;;;;;;;;21.34;91.11;100785.72;5032181;28;20405;-42
2022/09/08 10:34:26;;;;;;;;;;;;;;;21.45;90.98;100789.50;5036803;28;19956;-42
2022/09/08 10:37:03;;;;;;;;;;;;;;;21.89;87.27;100790.03;5037798;28;19954;-42
2022/09/08 10:39:40;;;;;;;;;;;;;;;21.96;86.67;100783.41;5034613;28;20037;-44
2022/09/08 10:42:28;;;;;;;;;;;;;;;21.70;83.85;100787.44;5037730;28;20031;-44
2022/09/08 10:45:12;;;;;;;;;;;;;;;21.24;84.81;100787.13;5037124;28;19917;-43
2022/09/08 10:47:43;;;;;;;;;;;;;;;21.39;88.97;100786.69;5036070;28;19936;-41
2022/09/08 10:50:16;;;;;;;;;;;;;;;21.78;87.60;100783.53;5031893;28;20364;-45
2022/09/08 10:52:57;;;;;;;;;;;;;;;21.79;83.75;100786.03;5032152;28;19919;-42
2022/09/08 10:55:34;;;;;;;;;;;;;;;21.33;85.24;100775.91;5035844;28;20008;-42
2022/09/08 10:58:18;;;;;;;;;;;;;;;21.19;85.85;100767.97;5037120;28;19952;-43
2022/09/08 11:00:54;;;;;;;;;;;;;;;21.35;85.86;100766.47;5036228;28;20273;-43
2022/09/08 11:03:38;;;;;;;;;;;;;;;21.48;84.66;100768.16;5034878;28;20748;-46
2022/09/08 11:06:08;;;;;;;;;;;;;;;21.57;86.94;100765.91;5036751;28;19966;-43
2022/09/08 11:08:37;;;;;;;;;;;;;;;21.58;86.29;100768.41;5034072;28;20058;-43
2022/09/08 11:11:05;;;;;;;;;;;;;;;21.56;84.54;100770.53;5023675;28;20402;-45
2022/09/08 11:13:37;;;;;;;;;;;;;;;21.49;86.61;100764.38;5035683;28;19973;-43
2022/09/08 11:16:19;;;;;;;;;;;;;;;21.60;85.65;100768.97;5035317;28;19913;-40
2022/09/08 11:18:52;;;;;;;;;;;;;;;21.51;86.66;100770.41;5036676;28;20006;-42
2022/09/08 11:21:24;;;;;;;;;;;;;;;21.60;86.62;100770.88;5036885;28;19919;-44
2022/09/08 11:24:07;;;;;;;;;;;;;;;21.70;84.10;100773.84;5031969;28;19920;-42
2022/09/08 11:26:38;;;;;;;;;;;;;;;21.78;84.34;100768.03;5036437;28;20484;-42
2022/09/08 11:29:09;;;;;;;;;;;;;;;21.79;84.82;100757.97;5036721;28;20368;-42
2022/09/08 11:31:53;;;;;;;;;;;;;;;21.66;85.32;100763.69;5034943;28;20375;-42
2022/09/08 11:34:33;;;;;;;;;;;;;;;21.44;85.81;100769.69;5036552;28;19912;-45
2022/09/08 11:37:17;;;;;;;;;;;;;;;21.29;86.43;100769.31;5036310;28;20532;-42
2022/09/08 11:39:48;;;;;;;;;;;;;;;21.20;87.96;100761.50;5035158;28;20327;-44
2022/09/08 11:42:33;;;;;;;;;;;;;;;21.20;88.26;100760.69;5035545;28;19966;-42
2022/09/08 11:45:08;;;;;;;;;;;;;;;21.29;86.75;100755.72;5035392;28;19917;-44
2022/09/08 11:47:52;;;;;;;;;;;;;;;21.54;85.75;100760.97;5033941;28;19913;-44
2022/09/08 11:50:21;;;;;;;;;;;;;;;21.88;87.06;100753.84;5024816;28;19909;-44
2022/09/08 11:52:47;;;;;;;;;;;;;;;22.43;83.74;100744.38;5035894;28;20291;-46
2022/09/08 11:55:12;;;;;;;;;;;;;;;22.76;81.35;100750.16;5033506;28;19909;-45
2022/09/08 11:57:37;;;;;;;;;;;;;;;22.97;78.03;100741.28;5035377;28;20547;-44
2022/09/08 12:00:05;;;;;;;;;;;;;;;22.93;79.78;100737.41;5035105;28;19909;-43
2022/09/08 12:02:41;;;;;;;;;;;;;;;22.63;79.79;100743.13;5027674;28;19909;-44
2022/09/08 12:05:22;;;;;;;;;;;;;;;22.13;80.06;100747.28;5023179;28;20410;-42
2022/09/08 12:08:05;;;;;;;;;;;;;;;21.86;81.94;100739.69;5035541;28;19919;-42
2022/09/08 12:10:50;;;;;;;;;;;;;;;21.80;81.31;100732.47;5019516;28;20309;-41
2022/09/08 12:13:28;;;;;;;;;;;;;;;21.75;82.21;100724.19;5033759;28;20100;-44
2022/09/08 12:16:06;;;;;;;;;;;;;;;21.79;82.12;100723.50;5035179;28;19965;-42
2022/09/08 12:18:34;;;;;;;;;;;;;;;21.69;82.05;100726.00;5035638;28;20387;-42
2022/09/08 12:21:18;;;;;;;;;;;;;;;21.55;82.20;100719.94;5035692;28;19909;-43
2022/09/08 12:24:00;;;;;;;;;;;;;;;21.44;82.60;100723.50;5034153;28;19974;-45
2022/09/08 12:26:25;;;;;;;;;;;;;;;21.60;80.23;100717.34;5035136;28;19920;-44
2022/09/08 12:28:58;;;;;;;;;;;;;;;21.60;81.43;100722.78;5035170;28;20312;-43
2022/09/08 12:31:37;;;;;;;;;;;;;;;21.76;78.26;100715.00;5034130;28;19931;-42
2022/09/08 12:34:18;;;;;;;;;;;;;;;22.12;79.87;100710.28;5032403;28;19912;-42
2022/09/08 12:36:46;;;;;;;;;;;;;;;22.91;74.42;100710.44;5035671;28;19998;-43
2022/09/08 12:39:11;;;;;;;;;;;;;;;23.53;72.73;100710.59;5034121;28;19913;-42
2022/09/08 12:41:36;;;;;;;;;;;;;;;24.27;69.66;100710.19;5034439;28;20282;-40
2022/09/08 12:44:16;;;;;;;;;;;;;;;24.86;68.99;100708.59;5034668;28;20127;-43
2022/09/08 12:46:44;;;;;;;;;;;;;;;25.36;63.11;100712.00;5033346;28;20156;-42
2022/09/08 12:49:25;;;;;;;;;;;;;;;25.70;62.55;100704.28;5033339;28;20378;-45
2022/09/08 12:51:54;;;;;;;;;;;;;;;25.71;60.92;100705.91;5032473;28;19904;-46